createdAt,value
2022-12-27T00:01:10.809Z,76.55
2022-12-27T00:03:37.385Z,76.49
2022-12-27T00:06:09.766Z,76.72
2022-12-27T00:08:43.500Z,76.87
2022-12-27T00:11:22.353Z,77.01
2022-12-27T00:13:49.343Z,77.19
2022-12-27T00:16:50.520Z,77.52
2022-12-27T00:19:18.337Z,77.54
2022-12-27T00:21:44.958Z,77.62
2022-12-27T00:24:15.852Z,78.05
2022-12-27T00:26:43.317Z,77.57
2022-12-27T00:29:10.727Z,77.17
2022-12-27T00:31:38.510Z,77.12
2022-12-27T00:34:06.913Z,76.17
2022-12-27T00:36:33.952Z,75.83
2022-12-27T00:39:01.223Z,76.03
2022-12-27T00:41:29.374Z,76.53
2022-12-27T00:43:56.259Z,77.30
2022-12-27T00:46:22.871Z,77.49
2022-12-27T00:48:50.002Z,77.80
2022-12-27T00:51:18.320Z,78.02
2022-12-27T00:54:47.689Z,77.86
2022-12-27T00:57:15.653Z,77.76
2022-12-27T00:59:42.339Z,77.29
2022-12-27T01:02:09.459Z,77.91
2022-12-27T01:04:35.986Z,78.05
2022-12-27T01:07:02.497Z,78.14
2022-12-27T01:09:29.323Z,78.33
2022-12-27T01:11:58.348Z,78.26
2022-12-27T01:14:26.183Z,78.50
2022-12-27T01:16:53.353Z,78.57
2022-12-27T01:19:20.297Z,78.87
2022-12-27T01:21:46.946Z,78.77
2022-12-27T01:24:13.507Z,78.62
2022-12-27T01:26:40.047Z,79.13
2022-12-27T01:29:06.697Z,79.15
2022-12-27T01:31:35.753Z,79.16
2022-12-27T01:34:02.316Z,79.06
2022-12-27T01:36:30.295Z,78.87
2022-12-27T01:38:58.369Z,78.80
2022-12-27T01:41:28.185Z,78.82
2022-12-27T01:43:54.780Z,79.69
2022-12-27T01:46:21.328Z,79.64
2022-12-27T01:48:50.172Z,79.48
2022-12-27T01:51:18.198Z,79.25
2022-12-27T01:53:48.105Z,79.75
2022-12-27T01:56:18.595Z,80.18
2022-12-27T01:58:48.783Z,80.27
2022-12-27T02:01:20.081Z,80.14
2022-12-27T02:03:52.092Z,79.91
2022-12-27T02:06:21.082Z,80.09
2022-12-27T02:08:54.387Z,80.01
2022-12-27T02:11:23.038Z,80.16
2022-12-27T02:13:49.605Z,80.25
2022-12-27T02:16:19.422Z,80.08
2022-12-27T02:18:46.700Z,80.18
2022-12-27T02:21:46.252Z,80.43
2022-12-27T02:24:50.002Z,80.47
2022-12-27T02:27:31.955Z,80.58
2022-12-27T02:30:07.953Z,80.75
2022-12-27T02:32:38.823Z,81.03
2022-12-27T02:35:11.827Z,80.93
2022-12-27T02:37:47.737Z,80.88
2022-12-27T02:40:16.692Z,81.29
2022-12-27T02:42:45.910Z,80.92
2022-12-27T02:45:19.700Z,81.60
2022-12-27T02:47:47.503Z,81.51
2022-12-27T02:50:15.138Z,81.42
2022-12-27T02:52:48.776Z,81.48
2022-12-27T02:55:29.897Z,81.66
2022-12-27T02:58:11.488Z,81.95
2022-12-27T03:00:46.395Z,82.25
2022-12-27T03:03:36.350Z,82.20
2022-12-27T03:06:23.808Z,82.28
2022-12-27T03:08:58.209Z,82.26
2022-12-27T03:11:27.891Z,82.05
2022-12-27T03:13:58.065Z,82.80
2022-12-27T03:16:35.600Z,82.54
2022-12-27T03:19:11.135Z,82.60
2022-12-27T03:21:41.905Z,83.25
2022-12-27T03:24:11.507Z,83.28
2022-12-27T03:26:47.031Z,83.24
2022-12-27T03:29:15.640Z,83.77
2022-12-27T03:31:47.655Z,83.87
2022-12-27T03:34:19.864Z,84.21
2022-12-27T03:36:46.726Z,83.72
2022-12-27T03:39:20.536Z,83.91
2022-12-27T03:41:53.439Z,83.36
2022-12-27T03:44:19.979Z,83.63
2022-12-27T03:46:49.402Z,83.73
2022-12-27T03:49:24.664Z,83.93
2022-12-27T03:51:56.383Z,83.81
2022-12-27T03:54:25.915Z,83.97
2022-12-27T03:56:54.778Z,83.67
2022-12-27T03:59:21.525Z,83.95
2022-12-27T04:01:49.467Z,83.71
2022-12-27T04:04:16.041Z,84.04
2022-12-27T04:06:42.942Z,83.80
2022-12-27T04:09:11.325Z,83.48
2022-12-27T04:11:38.349Z,83.92
2022-12-27T04:14:04.884Z,83.62
2022-12-27T04:16:31.403Z,84.50
2022-12-27T04:18:59.660Z,84.46
2022-12-27T04:21:26.379Z,83.99
2022-12-27T04:23:52.860Z,83.92
2022-12-27T04:26:19.427Z,84.09
2022-12-27T04:28:45.925Z,84.34
2022-12-27T04:31:12.640Z,83.99
2022-12-27T04:33:39.135Z,83.41
2022-12-27T04:36:08.475Z,82.58
2022-12-27T04:38:37.001Z,82.59
2022-12-27T04:41:03.665Z,82.51
2022-12-27T04:43:30.154Z,82.00
2022-12-27T04:45:58.380Z,81.75
2022-12-27T04:48:27.832Z,82.02
2022-12-27T04:50:57.105Z,81.70
2022-12-27T04:53:25.412Z,81.44
2022-12-27T04:55:51.918Z,82.33
2022-12-27T04:58:18.642Z,81.21
2022-12-27T05:00:45.215Z,81.17
2022-12-27T05:03:15.068Z,81.24
2022-12-27T05:05:44.321Z,80.59
2022-12-27T05:08:12.623Z,80.69
2022-12-27T05:10:43.506Z,80.09
2022-12-27T05:13:10.904Z,79.60
2022-12-27T05:15:37.473Z,79.84
2022-12-27T05:18:04.093Z,79.29
2022-12-27T05:20:30.683Z,79.05
2022-12-27T05:22:57.438Z,79.10
2022-12-27T05:25:23.933Z,79.15
2022-12-27T05:27:51.906Z,78.60
2022-12-27T05:30:18.500Z,78.61
2022-12-27T05:32:49.002Z,78.26
2022-12-27T05:35:15.559Z,77.72
2022-12-27T05:37:42.141Z,78.25
2022-12-27T05:40:10.673Z,77.71
2022-12-27T05:42:37.318Z,77.93
2022-12-27T05:45:07.261Z,77.80
2022-12-27T05:47:34.033Z,77.40
2022-12-27T05:50:01.148Z,77.09
2022-12-27T05:52:37.579Z,77.11
2022-12-27T05:55:09.218Z,77.31
2022-12-27T05:57:36.271Z,77.29
2022-12-27T06:00:05.832Z,77.83
2022-12-27T06:02:32.535Z,77.97
2022-12-27T06:05:00.291Z,78.00
2022-12-27T06:07:26.805Z,78.21
2022-12-27T06:09:53.423Z,78.11
2022-12-27T06:12:19.991Z,78.08
2022-12-27T06:14:46.462Z,78.44
2022-12-27T06:17:16.769Z,78.35
2022-12-27T06:19:43.582Z,78.42
2022-12-27T06:22:10.273Z,78.15
2022-12-27T06:24:36.752Z,77.87
2022-12-27T06:27:05.795Z,77.79
2022-12-27T06:29:33.286Z,78.60
2022-12-27T06:32:00.547Z,78.49
2022-12-27T06:34:28.641Z,78.45
2022-12-27T06:36:55.429Z,78.76
2022-12-27T06:39:21.972Z,79.02
2022-12-27T06:41:48.485Z,79.37
2022-12-27T06:44:15.141Z,79.49
2022-12-27T06:46:41.719Z,79.45
2022-12-27T06:49:12.992Z,79.43
2022-12-27T06:51:40.925Z,79.93
2022-12-27T06:54:07.499Z,80.55
2022-12-27T06:56:33.987Z,80.69
2022-12-27T06:59:05.595Z,80.50
2022-12-27T07:01:32.494Z,80.77
2022-12-27T07:04:00.330Z,80.86
2022-12-27T07:06:28.798Z,80.96
2022-12-27T07:08:57.324Z,80.92
2022-12-27T07:11:24.937Z,81.15
2022-12-27T07:13:53.688Z,81.41
2022-12-27T07:16:22.417Z,81.30
2022-12-27T07:18:50.233Z,81.06
2022-12-27T07:21:22.388Z,81.64
2022-12-27T07:23:50.399Z,81.91
2022-12-27T07:26:20.136Z,81.78
2022-12-27T07:28:47.294Z,81.55
2022-12-27T07:31:15.889Z,81.36
2022-12-27T07:33:43.294Z,81.74
2022-12-27T07:36:13.712Z,81.97
2022-12-27T07:38:40.199Z,82.23
2022-12-27T07:41:07.294Z,82.33
2022-12-27T07:43:35.902Z,82.30
2022-12-27T07:46:05.447Z,81.97
2022-12-27T07:48:32.302Z,82.49
2022-12-27T07:50:58.843Z,82.01
2022-12-27T07:53:25.371Z,81.66
2022-12-27T07:55:52.115Z,81.71
2022-12-27T07:58:18.701Z,81.29
2022-12-27T08:00:47.899Z,81.17
2022-12-27T08:03:14.552Z,81.02
2022-12-27T08:05:45.151Z,80.90
2022-12-27T08:08:14.423Z,80.85
2022-12-27T08:10:46.292Z,80.22
2022-12-27T08:13:14.266Z,80.04
2022-12-27T08:15:42.637Z,80.23
2022-12-27T08:18:10.622Z,79.82
2022-12-27T08:20:38.260Z,80.02
2022-12-27T08:23:06.781Z,80.10
2022-12-27T08:25:33.217Z,79.90
2022-12-27T08:28:03.506Z,79.53
2022-12-27T08:30:30.102Z,79.47
2022-12-27T08:32:56.939Z,79.41
2022-12-27T08:35:51.394Z,79.12
2022-12-27T08:38:11.785Z,79.20
2022-12-27T08:40:41.008Z,78.64
2022-12-27T08:43:07.857Z,77.99
2022-12-27T08:45:34.384Z,77.37
2022-12-27T08:48:01.575Z,77.18
2022-12-27T08:50:30.438Z,76.79
2022-12-27T08:52:58.170Z,77.00
2022-12-27T08:55:25.668Z,77.38
2022-12-27T08:57:56.566Z,77.62
2022-12-27T09:00:23.388Z,77.79
2022-12-27T09:02:50.401Z,77.52
2022-12-27T09:05:17.196Z,77.76
2022-12-27T09:07:45.111Z,77.37
2022-12-27T09:10:11.903Z,77.28
2022-12-27T09:12:38.532Z,77.06
2022-12-27T09:15:06.163Z,76.95
2022-12-27T09:17:33.254Z,76.49
2022-12-27T09:19:59.825Z,75.78
2022-12-27T09:22:28.265Z,75.14
2022-12-27T09:24:56.089Z,75.16
2022-12-27T09:27:22.758Z,75.29
2022-12-27T09:29:49.223Z,75.30
2022-12-27T09:32:16.167Z,74.53
2022-12-27T09:34:44.000Z,74.53
2022-12-27T09:37:11.500Z,73.79
2022-12-27T09:39:38.397Z,72.39
2022-12-27T09:45:15.816Z,72.47
2022-12-27T09:47:51.185Z,72.42
2022-12-27T09:50:23.960Z,72.75
2022-12-27T09:52:59.145Z,73.35
2022-12-27T09:55:37.046Z,73.65
2022-12-27T09:58:16.927Z,73.74
2022-12-27T10:00:46.360Z,72.98
2022-12-27T10:03:13.270Z,73.22
2022-12-27T10:05:45.755Z,72.87
2022-12-27T10:08:30.075Z,72.67
2022-12-27T10:11:06.938Z,72.55
2022-12-27T10:13:49.398Z,72.35
2022-12-27T10:16:25.284Z,72.50
2022-12-27T10:19:05.566Z,72.38
2022-12-27T10:21:37.293Z,72.28
2022-12-27T10:24:16.879Z,72.06
2022-12-27T10:26:43.913Z,71.72
2022-12-27T10:29:18.836Z,72.22
2022-12-27T10:31:45.973Z,71.80
2022-12-27T10:34:15.862Z,71.84
2022-12-27T10:36:43.998Z,72.51
2022-12-27T10:39:17.199Z,71.83
2022-12-27T10:41:54.102Z,72.04
2022-12-27T10:44:23.754Z,71.84
2022-12-27T10:46:52.892Z,71.34
2022-12-27T10:49:24.251Z,71.55
2022-12-27T10:51:52.443Z,71.89
2022-12-27T10:54:22.452Z,71.39
2022-12-27T10:56:49.383Z,70.59
2022-12-27T10:59:18.150Z,70.09
2022-12-27T11:01:48.063Z,69.81
2022-12-27T11:04:20.791Z,70.24
2022-12-27T11:06:49.735Z,70.60
2022-12-27T11:09:29.911Z,70.45
2022-12-27T11:12:19.145Z,70.65
2022-12-27T11:14:57.666Z,69.85
2022-12-27T11:17:29.068Z,68.83
2022-12-27T11:19:57.434Z,68.67
2022-12-27T11:22:24.692Z,69.13
2022-12-27T11:24:54.207Z,69.13
2022-12-27T11:27:26.908Z,69.12
2022-12-27T11:29:58.803Z,68.83
2022-12-27T11:32:26.891Z,68.14
2022-12-27T11:35:31.174Z,67.90
2022-12-27T11:38:32.067Z,66.84
2022-12-27T11:41:02.271Z,66.64
2022-12-27T11:43:33.605Z,66.49
2022-12-27T11:46:03.781Z,66.05
2022-12-27T11:48:43.594Z,66.12
2022-12-27T11:55:13.003Z,65.16
2022-12-27T11:58:09.698Z,65.29
2022-12-27T12:00:49.770Z,65.44
2022-12-27T12:03:56.034Z,65.51
2022-12-27T12:06:35.698Z,65.72
2022-12-27T12:09:21.556Z,65.93
2022-12-27T12:12:14.600Z,66.28
2022-12-27T12:14:58.423Z,66.79
2022-12-27T12:17:42.732Z,66.31
2022-12-27T12:20:34.269Z,66.24
2022-12-27T12:23:12.322Z,65.37
2022-12-27T12:26:06.318Z,65.95
2022-12-27T12:29:17.318Z,66.31
2022-12-27T12:32:05.193Z,65.77
2022-12-27T12:35:06.084Z,65.28
2022-12-27T12:38:06.312Z,65.09
2022-12-27T12:40:50.285Z,65.07
2022-12-27T12:43:36.060Z,65.50
2022-12-27T12:46:17.151Z,65.36
2022-12-27T12:49:10.391Z,65.40
2022-12-27T12:51:56.183Z,65.57
2022-12-27T12:54:39.727Z,65.03
2022-12-27T12:57:25.256Z,64.88
2022-12-27T13:00:05.649Z,65.07
2022-12-27T13:02:58.599Z,65.04
2022-12-27T13:05:32.493Z,65.28
2022-12-27T13:08:10.780Z,65.24
2022-12-27T13:11:13.701Z,65.04
2022-12-27T13:13:54.234Z,65.04
2022-12-27T13:16:30.465Z,65.93
2022-12-27T13:19:06.404Z,65.97
2022-12-27T13:21:50.856Z,65.92
2022-12-27T13:24:29.750Z,66.29
2022-12-27T13:27:09.369Z,66.05
2022-12-27T13:30:03.004Z,65.95
2022-12-27T13:32:44.247Z,65.99
2022-12-27T13:35:28.297Z,66.38
2022-12-27T13:38:05.652Z,66.18
2022-12-27T13:40:55.633Z,66.45
2022-12-27T13:43:42.071Z,66.21
2022-12-27T13:46:27.005Z,66.13
2022-12-27T13:49:07.141Z,66.06
2022-12-27T13:51:53.359Z,66.15
2022-12-27T13:54:53.220Z,66.38
2022-12-27T13:57:31.012Z,66.87
2022-12-27T14:00:11.301Z,67.05
2022-12-27T14:03:20.887Z,67.18
2022-12-27T14:06:12.007Z,68.19
2022-12-27T14:09:02.624Z,68.42
2022-12-27T14:11:39.830Z,68.15
2022-12-27T14:14:10.653Z,68.30
2022-12-27T14:16:47.083Z,67.77
2022-12-27T14:19:32.724Z,68.26
2022-12-27T14:22:28.901Z,67.95
2022-12-27T14:25:29.737Z,67.80
2022-12-27T14:28:45.489Z,67.70
2022-12-27T14:31:42.003Z,67.81
2022-12-27T14:35:02.796Z,67.70
2022-12-27T15:00:05.496Z,67.81
2022-12-27T15:03:03.133Z,68.03
2022-12-27T15:09:15.616Z,68.72
2022-12-27T15:11:57.102Z,68.92
2022-12-27T15:15:19.088Z,69.29
2022-12-27T15:18:13.950Z,69.62
2022-12-27T15:21:01.261Z,69.54
2022-12-27T15:23:37.348Z,69.39
2022-12-27T15:26:21.575Z,69.53
2022-12-27T15:29:24.883Z,69.49
2022-12-27T15:32:03.556Z,69.43
2022-12-27T15:34:49.539Z,69.82
2022-12-27T15:37:54.925Z,69.66
2022-12-27T15:40:56.982Z,69.26
2022-12-27T15:44:03.596Z,69.30
2022-12-27T15:47:00.856Z,69.49
2022-12-27T15:50:21.226Z,69.24
2022-12-27T15:53:24.013Z,68.85
2022-12-27T15:56:20.022Z,68.93
2022-12-27T15:59:27.720Z,68.61
2022-12-27T16:02:23.670Z,68.52
2022-12-27T16:04:53.562Z,68.56
2022-12-27T16:07:50.108Z,68.18
2022-12-27T16:11:10.574Z,68.08
2022-12-27T16:13:45.512Z,68.40
2022-12-27T16:16:51.665Z,68.20
2022-12-27T16:19:40.914Z,68.12
2022-12-27T16:22:36.385Z,68.15
2022-12-27T16:25:32.855Z,67.94
2022-12-27T16:28:05.117Z,67.82
2022-12-27T16:30:43.742Z,68.14
2022-12-27T16:33:36.492Z,68.93
2022-12-27T16:36:22.622Z,69.42
2022-12-27T16:39:32.539Z,69.53
2022-12-27T16:42:08.701Z,70.05
2022-12-27T16:44:58.539Z,69.98
2022-12-27T16:48:03.422Z,70.19
2022-12-27T16:54:23.459Z,70.12
2022-12-27T16:57:35.547Z,69.99
2022-12-27T17:00:49.962Z,69.84
2022-12-27T17:03:43.399Z,69.47
2022-12-27T17:06:57.004Z,69.30
2022-12-27T17:09:44.070Z,69.62
2022-12-27T17:12:36.986Z,69.75
2022-12-27T17:15:55.430Z,70.50
2022-12-27T17:18:53.017Z,70.15
2022-12-27T17:21:30.151Z,70.63
2022-12-27T17:24:06.489Z,70.67
2022-12-27T17:26:46.960Z,70.83
2022-12-27T17:29:31.905Z,70.70
2022-12-27T17:32:09.738Z,70.90
2022-12-27T17:35:13.365Z,71.00
2022-12-27T17:37:51.505Z,71.28
2022-12-27T17:40:30.591Z,71.38
2022-12-27T17:43:09.371Z,71.67
2022-12-27T17:45:47.134Z,71.69
2022-12-27T17:48:23.843Z,71.83
2022-12-27T17:51:08.056Z,72.04
2022-12-27T17:53:44.251Z,72.10
2022-12-27T17:56:17.700Z,72.47
2022-12-27T17:58:44.602Z,71.99
2022-12-27T18:01:12.017Z,72.58
2022-12-27T18:03:43.921Z,72.78
2022-12-27T18:06:12.498Z,72.92
2022-12-27T18:08:41.217Z,73.11
2022-12-27T18:11:10.193Z,72.79
2022-12-27T18:13:45.343Z,72.85
2022-12-27T18:16:18.063Z,72.91
2022-12-27T18:18:48.083Z,73.36
2022-12-27T18:21:25.226Z,73.09
2022-12-27T18:23:53.972Z,73.18
2022-12-27T18:26:30.573Z,73.57
2022-12-27T18:28:57.523Z,73.62
2022-12-27T18:31:28.593Z,73.72
2022-12-27T18:33:59.850Z,73.98
2022-12-27T18:36:33.075Z,73.65
2022-12-27T18:39:02.038Z,73.90
2022-12-27T18:41:36.244Z,74.11
2022-12-27T18:44:03.483Z,74.25
2022-12-27T18:46:32.740Z,74.12
2022-12-27T18:49:00.442Z,74.69
2022-12-27T18:51:33.863Z,74.30
2022-12-27T18:54:01.257Z,73.82
2022-12-27T18:56:30.110Z,74.07
2022-12-27T18:59:04.014Z,74.21
2022-12-27T19:01:40.106Z,74.31
2022-12-27T19:04:22.411Z,73.92
2022-12-27T19:07:04.083Z,74.31
2022-12-27T19:09:37.291Z,74.71
2022-12-27T19:12:07.801Z,74.27
2022-12-27T19:14:40.871Z,74.77
2022-12-27T19:17:11.286Z,74.92
2022-12-27T19:19:38.313Z,74.79
2022-12-27T19:22:33.329Z,74.58
2022-12-27T19:25:00.441Z,74.55
2022-12-27T19:27:27.403Z,74.77
2022-12-27T19:29:53.950Z,74.41
2022-12-27T19:32:26.757Z,74.26
2022-12-27T19:34:58.085Z,74.69
2022-12-27T19:37:26.675Z,74.73
2022-12-27T19:39:55.444Z,75.02
2022-12-27T19:42:27.304Z,75.11
2022-12-27T19:44:56.066Z,74.88
2022-12-27T19:47:22.987Z,75.38
2022-12-27T19:49:50.103Z,75.55
2022-12-27T19:52:19.274Z,75.70
2022-12-27T19:54:46.506Z,75.24
2022-12-27T19:57:15.098Z,75.26
2022-12-27T19:59:41.778Z,75.64
2022-12-27T20:02:09.923Z,75.80
2022-12-27T20:04:36.883Z,75.56
2022-12-27T20:07:05.039Z,75.34
2022-12-27T20:09:31.628Z,75.25
2022-12-27T20:11:58.250Z,75.85
2022-12-27T20:14:26.212Z,75.80
2022-12-27T20:16:53.898Z,76.52
2022-12-27T20:19:20.613Z,75.64
2022-12-27T20:21:47.455Z,76.05
2022-12-27T20:24:14.528Z,75.86
2022-12-27T20:26:42.341Z,76.16
2022-12-27T20:29:09.468Z,75.99
2022-12-27T20:31:44.128Z,75.97
2022-12-27T20:34:10.957Z,76.28
2022-12-27T20:36:39.979Z,76.31
2022-12-27T20:39:06.561Z,76.53
2022-12-27T20:41:33.186Z,76.35
2022-12-27T20:43:59.934Z,76.71
2022-12-27T20:46:27.220Z,76.55
2022-12-27T20:48:56.141Z,76.14
2022-12-27T20:51:25.172Z,76.29
2022-12-27T20:53:54.797Z,76.28
2022-12-27T20:56:21.502Z,76.91
2022-12-27T20:58:48.533Z,76.23
2022-12-27T21:01:17.669Z,76.02
2022-12-27T21:03:45.296Z,75.86
2022-12-27T21:06:15.621Z,76.07
2022-12-27T21:08:47.847Z,75.94
2022-12-27T21:11:21.529Z,75.53
2022-12-27T21:13:48.695Z,76.06
2022-12-27T21:16:17.185Z,75.88
2022-12-27T21:18:44.417Z,75.67
2022-12-27T21:21:14.171Z,75.49
2022-12-27T21:23:40.929Z,75.44
2022-12-27T21:26:09.254Z,75.41
2022-12-27T21:28:39.237Z,75.32
2022-12-27T21:31:08.429Z,75.59
2022-12-27T21:33:35.011Z,75.26
2022-12-27T21:36:02.970Z,75.37
2022-12-27T21:38:33.046Z,75.45
2022-12-27T21:41:01.140Z,74.68
2022-12-27T21:43:28.795Z,75.15
2022-12-27T21:45:55.910Z,74.93
2022-12-27T21:48:24.485Z,74.40
2022-12-27T21:50:51.189Z,74.41
2022-12-27T21:53:20.035Z,74.22
2022-12-27T21:55:47.986Z,74.38
2022-12-27T21:58:14.569Z,74.15
2022-12-27T22:00:41.150Z,73.80
2022-12-27T22:03:07.933Z,74.02
2022-12-27T22:05:34.603Z,73.91
2022-12-27T22:08:01.173Z,73.37
2022-12-27T22:10:28.418Z,73.66
2022-12-27T22:12:56.248Z,73.33
2022-12-27T22:15:22.888Z,73.60
2022-12-27T22:17:54.184Z,73.63
2022-12-27T22:20:20.930Z,73.63
2022-12-27T22:22:47.381Z,73.04
2022-12-27T22:25:14.500Z,73.25
2022-12-27T22:27:40.987Z,73.56
2022-12-27T22:30:11.259Z,73.66
2022-12-27T22:32:38.112Z,73.62
2022-12-27T22:35:05.325Z,73.19
2022-12-27T22:37:32.107Z,73.59
2022-12-27T22:39:58.833Z,73.19
2022-12-27T22:42:25.365Z,73.25
2022-12-27T22:44:51.860Z,73.36
2022-12-27T22:47:28.403Z,73.20
2022-12-27T22:49:55.402Z,72.98
2022-12-27T22:52:22.276Z,72.79
2022-12-27T22:55:07.006Z,72.71
2022-12-27T22:57:34.279Z,72.54
2022-12-27T23:00:01.104Z,72.85
2022-12-27T23:02:31.023Z,72.74
2022-12-27T23:04:57.757Z,73.22
2022-12-27T23:08:03.281Z,72.88
2022-12-27T23:10:10.833Z,73.00
2022-12-27T23:12:37.421Z,72.61
2022-12-27T23:15:04.682Z,72.73
2022-12-27T23:17:33.979Z,72.83
2022-12-27T23:20:00.825Z,72.10
2022-12-27T23:22:27.243Z,72.21
2022-12-27T23:24:53.713Z,72.30
2022-12-27T23:27:20.288Z,72.41
2022-12-27T23:29:47.020Z,72.42
2022-12-27T23:32:13.482Z,72.10
2022-12-27T23:34:41.795Z,72.40
2022-12-27T23:37:08.294Z,72.40
2022-12-27T23:39:34.805Z,71.94
2022-12-27T23:42:01.298Z,72.07
2022-12-27T23:44:34.399Z,71.61
2022-12-27T23:47:02.390Z,71.95
2022-12-27T23:49:29.084Z,71.68
2022-12-27T23:51:57.181Z,71.45
2022-12-27T23:54:23.685Z,71.63
2022-12-27T23:56:50.538Z,71.60
2022-12-27T23:59:19.326Z,71.42
